Time;durP1;ratioP1;P1;durP2;ratioP2;P2;SDS_P1;SDS_P2;PMS_P1;PMS_P2;Temp;Humidity;BMP_temperature;BMP_pressure;BME280_temperature;BME280_humidity;BME280_pressure;Samples;Min_cycle;Max_cycle;Signal;HPM_P1;HPM_P2
2022/11/13 00:00:11;;;;;;;20.40;12.48;;;;;;;1.06;100.00;98324.94;5028681;28;20136;-55
2022/11/13 00:02:56;;;;;;;22.23;11.55;;;;;;;0.95;100.00;98323.44;5043353;28;20055;-57
2022/11/13 00:05:41;;;;;;;19.80;11.98;;;;;;;0.80;100.00;98323.25;5040159;28;20052;-55
2022/11/13 00:08:27;;;;;;;19.17;11.45;;;;;;;0.84;100.00;98321.09;5025016;28;20188;-56
2022/11/13 00:11:17;;;;;;;19.80;11.13;;;;;;;0.92;100.00;98317.63;5039365;28;20059;-55
2022/11/13 00:14:02;;;;;;;19.40;11.02;;;;;;;0.96;100.00;98314.44;5028754;28;20428;-54
2022/11/13 00:16:46;;;;;;;20.10;12.05;;;;;;;0.75;100.00;98309.59;5032027;28;20126;-56
2022/11/13 00:19:31;;;;;;;16.73;10.15;;;;;;;0.68;100.00;98314.75;5039274;28;20083;-52
2022/11/13 00:22:16;;;;;;;22.92;13.90;;;;;;;0.82;100.00;98317.78;5028351;28;20631;-54
2022/11/13 00:25:02;;;;;;;19.98;11.15;;;;;;;0.84;100.00;98308.59;5031546;28;20549;-54
2022/11/13 00:27:47;;;;;;;18.70;10.45;;;;;;;0.52;100.00;98305.72;5048583;28;20055;-55
2022/11/13 00:30:32;;;;;;;15.93;10.93;;;;;;;0.44;100.00;98304.91;5028379;28;20624;-55
2022/11/13 00:33:17;;;;;;;16.17;10.75;;;;;;;0.60;100.00;98299.59;5028311;28;20461;-55
2022/11/13 00:36:25;;;;;;;20.77;11.98;;;;;;;0.78;100.00;98301.28;5041482;28;20110;-53
2022/11/13 00:39:10;;;;;;;19.75;12.10;;;;;;;0.82;100.00;98301.78;5044557;28;20421;-54
2022/11/13 00:41:56;;;;;;;17.08;10.88;;;;;;;0.92;100.00;98293.63;5030136;28;20546;-54
2022/11/13 00:44:41;;;;;;;18.80;11.40;;;;;;;0.93;100.00;98287.28;5028286;28;20068;-56
2022/11/13 00:47:26;;;;;;;19.05;11.65;;;;;;;0.88;100.00;98287.75;5028887;28;20338;-54
2022/11/13 00:50:10;;;;;;;17.33;10.68;;;;;;;0.88;100.00;98280.59;5045727;28;20634;-53
2022/11/13 00:52:55;;;;;;;16.67;9.95;;;;;;;1.08;100.00;98269.59;5048339;28;20424;-55
2022/11/13 00:55:44;;;;;;;15.55;10.05;;;;;;;1.21;100.00;98269.06;5036065;28;20083;-56
2022/11/13 00:58:29;;;;;;;14.38;10.30;;;;;;;1.29;100.00;98265.56;5044283;28;20049;-53
2022/11/13 01:01:18;;;;;;;14.25;9.25;;;;;;;1.30;100.00;98261.91;5028205;28;20049;-55
2022/11/13 01:04:03;;;;;;;14.45;10.50;;;;;;;1.40;100.00;98259.03;5028162;28;20190;-52
2022/11/13 01:06:48;;;;;;;15.10;9.15;;;;;;;1.27;100.00;98262.22;5028647;28;20144;-55
2022/11/13 01:09:33;;;;;;;15.88;10.07;;;;;;;1.29;100.00;98255.72;5027943;28;20057;-55
2022/11/13 01:12:18;;;;;;;12.98;8.82;;;;;;;1.37;100.00;98251.38;5028853;28;20135;-55
2022/11/13 01:15:03;;;;;;;12.43;8.20;;;;;;;1.42;100.00;98252.53;5040992;28;20117;-56
2022/11/13 01:17:50;;;;;;;13.43;8.32;;;;;;;1.51;100.00;98252.50;5047515;28;20382;-57
2022/11/13 01:20:36;;;;;;;19.50;9.05;;;;;;;1.43;100.00;98254.19;5046267;28;20080;-55
2022/11/13 01:23:21;;;;;;;13.13;8.68;;;;;;;1.28;100.00;98246.06;5047423;28;20530;-52
2022/11/13 01:26:12;;;;;;;14.45;9.07;;;;;;;1.36;100.00;98239.84;5037746;28;20056;-56
2022/11/13 01:28:58;;;;;;;12.63;8.50;;;;;;;1.32;100.00;98232.38;5028187;28;20056;-56
2022/11/13 01:31:43;;;;;;;16.60;9.52;;;;;;;1.28;100.00;98238.06;5027015;28;20061;-52
2022/11/13 01:34:28;;;;;;;12.02;8.38;;;;;;;1.28;100.00;98232.72;5027874;28;20151;-55
2022/11/13 01:37:13;;;;;;;14.25;8.70;;;;;;;1.24;100.00;98234.06;5044991;28;20436;-56
2022/11/13 01:39:58;;;;;;;13.27;8.85;;;;;;;1.20;100.00;98231.88;5047230;28;20068;-56
2022/11/13 01:42:44;;;;;;;12.45;8.10;;;;;;;1.19;100.00;98227.56;5027411;28;20057;-56
2022/11/13 01:46:05;;;;;;;14.18;8.10;;;;;;;1.24;100.00;98217.22;5029778;28;20051;-53
2022/11/13 01:48:55;;;;;;;13.95;8.95;;;;;;;0.95;100.00;98215.94;5047833;28;20547;-52
2022/11/13 01:51:49;;;;;;;13.18;8.30;;;;;;;0.91;100.00;98210.09;5032772;28;20192;-57
2022/11/13 01:54:47;;;;;;;12.55;8.43;;;;;;;0.83;100.00;98207.44;5026852;28;20052;-55
2022/11/13 01:57:33;;;;;;;13.38;8.77;;;;;;;0.69;100.00;98204.47;5026845;28;20527;-53
2022/11/13 02:00:18;;;;;;;12.40;8.57;;;;;;;0.61;100.00;98210.63;5026599;28;20532;-54
2022/11/13 02:03:04;;;;;;;16.13;9.15;;;;;;;0.58;100.00;98210.13;5026471;28;20076;-56
2022/11/13 02:05:50;;;;;;;13.38;8.45;;;;;;;0.48;100.00;98204.97;5032434;28;20432;-55
2022/11/13 02:08:35;;;;;;;15.23;9.35;;;;;;;0.56;100.00;98207.66;5046269;28;20560;-55
2022/11/13 02:11:20;;;;;;;14.95;9.50;;;;;;;0.47;100.00;98204.13;5036520;28;20052;-54
2022/11/13 02:14:07;;;;;;;17.08;9.25;;;;;;;0.52;100.00;98206.31;5028164;28;20044;-53
2022/11/13 02:16:57;;;;;;;16.35;10.30;;;;;;;0.48;100.00;98194.31;5031205;28;20052;-54
2022/11/13 02:19:47;;;;;;;20.63;9.88;;;;;;;0.44;100.00;98193.00;5039159;28;20118;-54
2022/11/13 02:22:56;;;;;;;18.15;10.52;;;;;;;0.27;100.00;98190.31;5043034;28;20862;-54
2022/11/13 02:25:43;;;;;;;14.80;10.27;;;;;;;0.17;100.00;98182.47;5030223;28;20082;-53
2022/11/13 02:28:28;;;;;;;13.93;9.50;;;;;;;0.19;100.00;98179.66;5043845;28;20438;-53
2022/11/13 02:31:14;;;;;;;14.80;9.98;;;;;;;0.14;100.00;98180.13;5025794;28;20196;-55
2022/11/13 02:34:01;;;;;;;12.50;8.95;;;;;;;0.16;100.00;98171.97;5026369;28;20722;-57
2022/11/13 02:36:46;;;;;;;14.85;9.68;;;;;;;0.10;100.00;98170.81;5038915;28;20121;-56
2022/11/13 02:39:31;;;;;;;14.27;9.25;;;;;;;-0.01;100.00;98170.13;5036949;28;20127;-56
2022/11/13 02:42:16;;;;;;;20.58;9.48;;;;;;;0.03;100.00;98173.28;5030127;28;20057;-57
2022/11/13 02:45:01;;;;;;;16.33;9.52;;;;;;;0.05;100.00;98168.66;5025851;28;20423;-57
2022/11/13 02:47:47;;;;;;;16.00;10.63;;;;;;;0.03;100.00;98167.97;5025495;28;20338;-56
2022/11/13 02:50:33;;;;;;;15.73;9.52;;;;;;;0.05;100.00;98173.97;5040243;28;20044;-55
2022/11/13 02:53:18;;;;;;;14.57;10.00;;;;;;;0.12;100.00;98168.81;5046864;28;20536;-56
2022/11/13 02:56:03;;;;;;;14.43;9.43;;;;;;;-0.03;100.00;98166.78;5042933;28;20047;-55
2022/11/13 02:58:48;;;;;;;14.15;9.93;;;;;;;-0.03;100.00;98165.97;5030920;28;20107;-55
2022/11/13 03:01:33;;;;;;;14.82;9.15;;;;;;;0.02;100.00;98160.13;5034469;28;20516;-56
2022/11/13 03:04:19;;;;;;;14.25;9.20;;;;;;;0.02;100.00;98160.13;5025614;28;20056;-55
2022/11/13 03:07:04;;;;;;;13.02;8.10;;;;;;;0.03;100.00;98154.66;5039936;28;20055;-56
2022/11/13 03:09:49;;;;;;;13.48;9.07;;;;;;;-0.03;100.00;98150.81;5030644;28;20055;-53
2022/11/13 03:12:34;;;;;;;12.85;8.30;;;;;;;-0.06;100.00;98139.69;5026001;28;20056;-53
2022/11/13 03:15:19;;;;;;;14.35;8.15;;;;;;;-0.19;100.00;98151.63;5034062;28;20047;-53
2022/11/13 03:18:07;;;;;;;13.30;8.07;;;;;;;-0.02;100.00;98151.66;5025966;28;20232;-55
2022/11/13 03:20:52;;;;;;;12.25;8.30;;;;;;;-0.08;100.00;98144.34;5024602;28;20056;-54
2022/11/13 03:23:40;;;;;;;13.70;8.60;;;;;;;-0.16;100.00;98142.47;5030292;28;20060;-53
2022/11/13 03:26:27;;;;;;;13.60;8.43;;;;;;;-0.07;100.00;98144.16;5040433;28;20441;-52
2022/11/13 03:29:12;;;;;;;13.40;9.00;;;;;;;-0.11;100.00;98155.31;5034178;28;20060;-52
2022/11/13 03:31:57;;;;;;;13.55;9.60;;;;;;;-0.20;100.00;98149.13;5036425;28;20072;-52
2022/11/13 03:34:42;;;;;;;16.08;9.18;;;;;;;-0.24;100.00;98151.28;5026064;28;20068;-53
2022/11/13 03:37:27;;;;;;;12.68;8.70;;;;;;;-0.28;100.00;98152.63;5042546;28;20067;-54
2022/11/13 03:40:12;;;;;;;15.70;9.20;;;;;;;-0.27;100.00;98144.47;5028729;28;20378;-55
2022/11/13 03:42:57;;;;;;;12.95;8.63;;;;;;;-0.29;100.00;98138.47;5025938;28;20163;-56
2022/11/13 03:45:46;;;;;;;13.43;8.70;;;;;;;-0.42;100.00;98144.28;5027840;28;20183;-55
2022/11/13 03:48:32;;;;;;;11.23;7.90;;;;;;;-0.46;100.00;98144.75;5031631;28;20059;-53
2022/11/13 03:51:17;;;;;;;13.70;8.85;;;;;;;-0.47;100.00;98148.41;5039703;28;20131;-55
2022/11/13 03:54:02;;;;;;;12.50;7.93;;;;;;;-0.42;100.00;98144.28;5029453;28;20523;-57
2022/11/13 03:56:47;;;;;;;12.68;8.10;;;;;;;-0.49;100.00;98140.59;5029004;28;20060;-53
2022/11/13 03:59:32;;;;;;;13.45;8.45;;;;;;;-0.55;100.00;98134.06;5027775;28;20064;-53
2022/11/13 04:02:17;;;;;;;12.88;8.68;;;;;;;-0.55;100.00;98149.22;5027888;28;20631;-54
2022/11/13 04:05:03;;;;;;;12.23;8.25;;;;;;;-0.63;100.00;98144.69;5042689;28;20179;-52
2022/11/13 04:07:48;;;;;;;13.52;8.23;;;;;;;-0.68;100.00;98141.69;5048709;28;20126;-54
2022/11/13 04:10:33;;;;;;;13.32;8.45;;;;;;;-0.72;100.00;98143.84;5046774;28;20068;-55
2022/11/13 04:13:18;;;;;;;15.15;9.85;;;;;;;-0.81;100.00;98126.19;5046389;28;20352;-54
2022/11/13 04:16:04;;;;;;;14.55;8.98;;;;;;;-0.83;100.00;98136.13;5041306;28;20052;-54
2022/11/13 04:18:49;;;;;;;15.50;9.60;;;;;;;-0.58;100.00;98128.25;5047502;28;20542;-53
2022/11/13 04:21:34;;;;;;;16.90;9.98;;;;;;;-0.68;100.00;98123.06;5027983;28;20402;-54
2022/11/13 04:24:19;;;;;;;14.93;9.65;;;;;;;-0.85;100.00;98120.34;5035355;28;20048;-53
2022/11/13 04:27:04;;;;;;;14.85;9.23;;;;;;;-1.00;100.00;98116.63;5048587;28;20063;-55
2022/11/13 04:29:49;;;;;;;12.02;8.55;;;;;;;-0.82;100.00;98121.84;5035004;28;20427;-52
2022/11/13 04:32:34;;;;;;;13.48;8.15;;;;;;;-0.77;100.00;98124.03;5028198;28;20440;-54
2022/11/13 04:35:19;;;;;;;13.57;8.82;;;;;;;-0.81;100.00;98119.03;5042026;28;20048;-53
2022/11/13 04:38:04;;;;;;;12.85;8.00;;;;;;;-0.88;100.00;98115.34;5048088;28;20056;-54
2022/11/13 04:42:47;;;;;;;12.65;8.45;;;;;;;-0.94;100.00;98114.16;5030141;28;20055;-55
2022/11/13 04:43:55;;;;;;;12.88;7.88;;;;;;;-0.90;100.00;98105.84;5029667;28;20056;-54
2022/11/13 04:46:39;;;;;;;11.98;7.18;;;;;;;-0.83;100.00;98101.56;5045510;28;20519;-56
2022/11/13 04:49:24;;;;;;;13.65;8.15;;;;;;;-0.90;100.00;98097.88;5039289;28;20064;-55
2022/11/13 04:52:09;;;;;;;11.00;7.10;;;;;;;-0.87;100.00;98094.91;5048121;28;20167;-55
2022/11/13 04:54:56;;;;;;;11.35;7.80;;;;;;;-0.94;100.00;98097.38;5031721;28;20065;-56
2022/11/13 04:57:41;;;;;;;12.55;7.00;;;;;;;-1.01;100.00;98083.88;5043200;28;20055;-55
2022/11/13 05:00:26;;;;;;;11.88;7.20;;;;;;;-1.01;100.00;98094.53;5047147;28;20495;-54
2022/11/13 05:03:11;;;;;;;10.90;7.25;;;;;;;-1.07;100.00;98092.50;5047912;28;20582;-52
2022/11/13 05:06:04;;;;;;;10.50;7.72;;;;;;;-1.09;100.00;98086.50;5027672;28;20454;-53
2022/11/13 05:08:50;;;;;;;14.80;8.15;;;;;;;-1.31;100.00;98088.72;5028983;28;20052;-53
2022/11/13 05:11:34;;;;;;;12.65;7.90;;;;;;;-1.35;100.00;98092.69;5027607;28;20248;-54
2022/11/13 05:14:20;;;;;;;13.13;7.88;;;;;;;-1.38;100.00;98087.69;5045146;28;20071;-55
2022/11/13 05:17:07;;;;;;;15.77;8.55;;;;;;;-1.40;100.00;98087.03;5027805;28;20052;-55
2022/11/13 05:19:52;;;;;;;13.43;8.30;;;;;;;-1.35;100.00;98085.56;5043081;28;20052;-54
2022/11/13 05:22:38;;;;;;;16.42;9.32;;;;;;;-1.33;100.00;98080.09;5047424;28;20052;-55
2022/11/13 05:25:23;;;;;;;14.07;9.50;;;;;;;-1.22;100.00;98089.63;5028123;28;20139;-54
2022/11/13 05:28:07;;;;;;;17.35;9.70;;;;;;;-1.14;100.00;98084.31;5028029;28;20059;-55
2022/11/13 05:30:52;;;;;;;16.58;9.50;;;;;;;-1.13;100.00;98075.38;5027384;28;20538;-57
2022/11/13 05:33:39;;;;;;;13.27;7.95;;;;;;;-1.09;100.00;98075.88;5027620;28;20052;-55
2022/11/13 05:36:24;;;;;;;13.13;8.48;;;;;;;-1.20;100.00;98069.88;5027439;28;20632;-54
2022/11/13 05:39:09;;;;;;;15.10;8.63;;;;;;;-1.14;100.00;98072.88;5035877;28;20378;-55
2022/11/13 05:41:55;;;;;;;12.93;7.85;;;;;;;-1.16;100.00;98065.06;5046745;28;20059;-55
2022/11/13 05:44:40;;;;;;;13.98;7.65;;;;;;;-1.16;100.00;98067.72;5034124;28;20531;-54
2022/11/13 05:47:25;;;;;;;13.25;8.23;;;;;;;-1.21;100.00;98073.50;5027897;28;20522;-56
2022/11/13 05:50:10;;;;;;;16.40;11.02;;;;;;;-1.24;100.00;98068.50;5044634;28;20051;-55
2022/11/13 05:52:55;;;;;;;15.75;9.82;;;;;;;-1.24;100.00;98062.34;5047071;28;20642;-54
2022/11/13 05:55:40;;;;;;;19.10;10.57;;;;;;;-1.25;100.00;98064.16;5026928;28;20104;-56
2022/11/13 05:58:25;;;;;;;14.75;9.43;;;;;;;-1.35;100.00;98056.34;5026218;28;20056;-54
2022/11/13 06:01:14;;;;;;;15.15;9.15;;;;;;;-1.47;100.00;98057.59;5046772;28;20282;-53
2022/11/13 06:04:00;;;;;;;15.40;9.68;;;;;;;-1.24;100.00;98051.72;5037620;28;20049;-54
2022/11/13 06:06:45;;;;;;;19.80;9.25;;;;;;;-1.28;100.00;98045.06;5039625;28;20735;-54
2022/11/13 06:09:31;;;;;;;14.18;8.68;;;;;;;-1.41;100.00;98038.38;5031307;28;20048;-53
2022/11/13 06:12:16;;;;;;;11.95;8.10;;;;;;;-1.32;100.00;98042.72;5027580;28;20165;-52
2022/11/13 06:15:00;;;;;;;13.57;9.23;;;;;;;-1.37;100.00;98045.03;5029923;28;20049;-55
2022/11/13 06:17:45;;;;;;;11.55;7.70;;;;;;;-1.35;100.00;98044.88;5025852;28;20199;-54
2022/11/13 06:20:33;;;;;;;15.52;9.23;;;;;;;-1.23;100.00;98048.06;5045843;28;20627;-54
2022/11/13 06:23:19;;;;;;;13.48;8.32;;;;;;;-1.25;100.00;98048.22;5025872;28;20168;-54
2022/11/13 06:26:09;;;;;;;12.20;7.63;;;;;;;-1.29;100.00;98046.88;5039559;28;20052;-56
2022/11/13 06:28:54;;;;;;;16.20;9.00;;;;;;;-1.26;100.00;98051.06;5032172;28;20424;-54
2022/11/13 06:31:40;;;;;;;14.43;8.10;;;;;;;-1.25;100.00;98042.09;5036664;28;20189;-55
2022/11/13 06:34:25;;;;;;;13.93;8.07;;;;;;;-1.25;100.00;98036.78;5031987;28;20047;-55
2022/11/13 06:37:09;;;;;;;15.52;9.15;;;;;;;-1.57;100.00;98039.97;5041866;28;20130;-53
2022/11/13 06:39:54;;;;;;;17.42;9.82;;;;;;;-1.52;100.00;98043.97;5042944;28;20146;-54
2022/11/13 06:42:39;;;;;;;16.77;10.02;;;;;;;-1.42;100.00;98033.19;5042020;28;20059;-56
2022/11/13 06:45:24;;;;;;;14.73;9.18;;;;;;;-1.48;100.00;98032.84;5043195;28;20056;-56
2022/11/13 06:48:09;;;;;;;13.55;7.80;;;;;;;-1.42;100.00;98038.50;5040334;28;20060;-56
2022/11/13 06:50:54;;;;;;;14.23;8.70;;;;;;;-1.47;100.00;98031.84;5033693;28;20079;-55
2022/11/13 06:53:39;;;;;;;14.05;8.95;;;;;;;-1.38;100.00;98035.41;5043964;28;20056;-55
2022/11/13 06:56:25;;;;;;;13.98;8.50;;;;;;;-1.36;100.00;98022.78;5033244;28;20419;-57
2022/11/13 06:59:10;;;;;;;14.25;8.82;;;;;;;-1.45;100.00;98023.72;5027821;28;20060;-56
2022/11/13 07:01:55;;;;;;;13.35;8.70;;;;;;;-1.60;100.00;98023.50;5023883;28;20437;-56
2022/11/13 07:04:40;;;;;;;19.08;8.60;;;;;;;-1.53;100.00;98021.88;5025658;28;20057;-55
2022/11/13 07:07:25;;;;;;;14.88;9.38;;;;;;;-1.63;100.00;98021.97;5040221;28;20056;-57
2022/11/13 07:10:10;;;;;;;15.07;8.40;;;;;;;-1.70;100.00;98018.28;5044472;28;20126;-55
2022/11/13 07:12:58;;;;;;;18.20;10.40;;;;;;;-1.67;100.00;98015.31;5028107;28;20231;-52
2022/11/13 07:15:43;;;;;;;16.80;10.20;;;;;;;-1.63;100.00;98002.56;5034636;28;20056;-55
2022/11/13 07:18:30;;;;;;;17.45;10.50;;;;;;;-1.62;100.00;98013.00;5046192;28;20448;-57
2022/11/13 07:21:15;;;;;;;15.65;9.90;;;;;;;-1.60;100.00;98011.06;5044395;28;20044;-56
2022/11/13 07:24:00;;;;;;;21.17;11.43;;;;;;;-1.57;100.00;98015.22;5030168;28;20173;-54
2022/11/13 07:26:45;;;;;;;22.15;11.95;;;;;;;-1.47;100.00;98007.13;5037272;28;20183;-56
2022/11/13 07:29:30;;;;;;;20.38;12.18;;;;;;;-1.47;100.00;97994.66;5038607;28;20543;-53
2022/11/13 07:32:15;;;;;;;22.27;12.63;;;;;;;-1.48;100.00;97998.31;5029704;28;20083;-56
2022/11/13 07:35:00;;;;;;;21.60;12.38;;;;;;;-1.27;100.00;97993.59;5029669;28;20052;-54
2022/11/13 07:37:45;;;;;;;18.92;12.15;;;;;;;-1.14;100.00;97998.44;5045829;28;20102;-55
2022/11/13 07:40:30;;;;;;;21.58;11.93;;;;;;;-1.07;100.00;97999.47;5049217;28;20199;-55
2022/11/13 07:43:15;;;;;;;18.33;11.68;;;;;;;-0.90;100.00;98000.34;5030048;28;20527;-54
2022/11/13 07:46:00;;;;;;;20.02;12.35;;;;;;;-1.00;100.00;97991.69;5031041;28;20577;-56
2022/11/13 07:48:45;;;;;;;18.73;11.77;;;;;;;-0.82;100.00;97987.06;5050470;28;20052;-55
2022/11/13 07:51:30;;;;;;;18.25;11.68;;;;;;;-0.81;100.00;97985.25;5042699;28;20053;-55
2022/11/13 07:54:15;;;;;;;18.90;12.80;;;;;;;-0.94;100.00;97975.06;5038802;28;20550;-54
2022/11/13 07:57:00;;;;;;;21.60;11.60;;;;;;;-0.91;100.00;97974.75;5040059;28;20400;-53
2022/11/13 07:59:45;;;;;;;18.52;12.10;;;;;;;-0.72;100.00;97980.75;5035389;28;20168;-56
2022/11/13 08:02:30;;;;;;;23.60;12.80;;;;;;;-0.68;100.00;97971.47;5039829;28;20594;-55
2022/11/13 08:05:15;;;;;;;24.63;14.23;;;;;;;-0.56;100.00;97979.94;5046859;28;20083;-56
2022/11/13 08:08:01;;;;;;;25.38;13.75;;;;;;;-0.31;100.00;97974.63;5046259;28;20078;-55
2022/11/13 08:10:46;;;;;;;24.05;14.90;;;;;;;-0.30;100.00;97971.81;5043003;28;20606;-57
2022/11/13 08:13:33;;;;;;;33.13;14.82;;;;;;;-0.26;100.00;97969.63;5047016;28;20055;-55
2022/11/13 08:16:18;;;;;;;34.00;15.70;;;;;;;-0.12;100.00;97969.97;5033556;28;20045;-56
2022/11/13 08:19:03;;;;;;;49.70;16.60;;;;;;;0.00;100.00;97973.94;5034844;28;20606;-54
2022/11/13 08:21:48;;;;;;;46.70;15.77;;;;;;;0.15;100.00;97978.56;5045325;28;20263;-57
2022/11/13 08:24:33;;;;;;;53.22;15.23;;;;;;;0.34;100.00;97986.16;5046596;28;20056;-55
2022/11/13 08:27:22;;;;;;;26.10;13.85;;;;;;;0.52;100.00;97985.13;5041939;28;20552;-53
2022/11/13 08:30:08;;;;;;;25.73;14.30;;;;;;;0.73;100.00;97984.53;5029800;28;20056;-57
2022/11/13 08:32:53;;;;;;;24.02;14.63;;;;;;;0.84;100.00;97970.00;5040196;28;20056;-57
2022/11/13 08:35:38;;;;;;;30.25;17.38;;;;;;;0.95;100.00;97970.63;5055940;28;20211;-56
2022/11/13 08:38:23;;;;;;;29.80;18.08;;;;;;;1.02;100.00;97967.06;5046069;28;20115;-56
2022/11/13 08:41:08;;;;;;;35.03;19.08;;;;;;;1.15;100.00;97958.47;5045393;28;20055;-55
2022/11/13 08:43:54;;;;;;;27.25;18.00;;;;;;;1.22;100.00;97942.59;5046959;28;20064;-56
2022/11/13 08:46:39;;;;;;;28.08;17.42;;;;;;;1.29;100.00;97940.06;5027906;28;20056;-55
2022/11/13 08:49:24;;;;;;;23.27;16.00;;;;;;;1.39;100.00;97934.47;5043340;28;20415;-57
2022/11/13 08:52:10;;;;;;;24.02;14.70;;;;;;;1.53;100.00;97928.34;5045948;28;20056;-55
2022/11/13 08:54:55;;;;;;;22.88;14.38;;;;;;;1.67;100.00;97916.03;5034403;28;20166;-53
2022/11/13 08:57:40;;;;;;;21.98;12.82;;;;;;;1.78;100.00;97921.97;5039042;28;20095;-55
2022/11/13 09:00:26;;;;;;;21.02;13.98;;;;;;;1.95;100.00;97917.28;5030416;28;20681;-55
2022/11/13 09:03:11;;;;;;;18.45;12.18;;;;;;;2.13;100.00;97927.59;5031056;28;20056;-57
2022/11/13 09:05:56;;;;;;;16.73;11.75;;;;;;;2.24;100.00;97915.63;5041551;28;20053;-53
2022/11/13 09:08:41;;;;;;;16.33;11.10;;;;;;;2.39;100.00;97915.63;5045495;28;20056;-54
2022/11/13 09:11:26;;;;;;;14.85;10.43;;;;;;;2.56;100.00;97915.41;5037816;28;20071;-52
2022/11/13 09:14:12;;;;;;;14.55;10.05;;;;;;;2.68;100.00;97913.09;5044877;28;20424;-56
2022/11/13 09:16:57;;;;;;;12.52;8.88;;;;;;;2.80;100.00;97908.09;5044030;28;20056;-53
2022/11/13 09:19:42;;;;;;;11.20;8.07;;;;;;;2.97;100.00;97909.53;5046556;28;20055;-56
2022/11/13 09:22:28;;;;;;;12.40;7.15;;;;;;;3.10;100.00;97900.78;5041784;28;20052;-56
2022/11/13 09:25:13;;;;;;;10.35;6.25;;;;;;;3.11;100.00;97899.78;5044972;28;20114;-57
2022/11/13 09:27:59;;;;;;;8.27;5.07;;;;;;;3.07;100.00;97903.88;5033657;28;20170;-56
2022/11/13 09:30:44;;;;;;;8.35;5.50;;;;;;;3.17;100.00;97911.56;5040645;28;20132;-56
2022/11/13 09:33:30;;;;;;;8.50;4.75;;;;;;;3.34;100.00;97904.13;5045153;28;20074;-57
2022/11/13 09:36:16;;;;;;;9.13;5.38;;;;;;;3.46;98.85;97901.75;5054990;28;20126;-57
2022/11/13 09:39:02;;;;;;;10.32;6.18;;;;;;;3.50;98.59;97894.13;5037808;28;20081;-56
2022/11/13 09:41:54;;;;;;;12.65;7.25;;;;;;;3.57;99.49;97897.72;5031008;28;20539;-57
2022/11/13 09:44:46;;;;;;;;;;;;;;;3.70;99.64;97898.84;5058406;28;20450;-54
2022/11/13 09:47:42;;;;;;;9.18;6.13;;;;;;;3.81;100.00;97894.78;5033026;28;19927;-58
2022/11/13 09:50:31;;;;;;;10.23;6.70;;;;;;;3.85;100.00;97883.50;5045660;28;20060;-55
2022/11/13 09:53:16;;;;;;;10.82;6.65;;;;;;;3.93;99.92;97887.88;5037132;28;20594;-55
2022/11/13 09:56:14;;;;;;;17.55;11.73;;;;;;;3.99;100.00;97886.25;5032952;28;20147;-57
2022/11/13 09:59:06;;;;;;;18.33;11.35;;;;;;;4.10;99.71;97887.56;5044987;28;20077;-55
2022/11/13 10:02:12;;;;;;;13.57;9.57;;;;;;;4.18;99.14;97882.06;5042511;28;20059;-57
2022/11/13 10:05:06;;;;;;;16.48;12.07;;;;;;;4.22;99.23;97879.78;5041961;28;20056;-56
2022/11/13 10:08:20;;;;;;;33.55;24.50;;;;;;;4.32;100.00;97880.28;5033695;28;20551;-54
2022/11/13 10:11:20;;;;;;;27.20;20.75;;;;;;;4.43;100.00;97876.19;5036284;28;20056;-56
2022/11/13 10:14:37;;;;;;;15.05;12.60;;;;;;;4.54;100.00;97882.84;5041217;28;20060;-55
2022/11/13 10:17:45;;;;;;;10.57;7.43;;;;;;;4.60;98.81;97881.22;5043415;28;20056;-55
2022/11/13 10:20:56;;;;;;;9.95;7.00;;;;;;;4.70;98.68;97878.97;5042345;28;20055;-53
2022/11/13 10:23:46;;;;;;;9.52;5.95;;;;;;;4.79;97.85;97880.44;5044505;28;20428;-54
2022/11/13 10:26:32;;;;;;;8.95;5.75;;;;;;;4.80;97.97;97879.41;5040801;28;20051;-53
2022/11/13 10:29:19;;;;;;;8.52;5.95;;;;;;;4.91;97.81;97867.25;5040787;28;20118;-53
2022/11/13 10:32:15;;;;;;;8.40;5.60;;;;;;;4.85;98.14;97876.13;5046435;28;20531;-55
2022/11/13 10:35:21;;;;;;;8.55;5.90;;;;;;;4.91;99.45;97866.44;5037821;28;20063;-55
2022/11/13 10:38:17;;;;;;;13.57;8.95;;;;;;;4.99;98.11;97855.53;5035191;28;20525;-56
2022/11/13 10:41:09;;;;;;;14.60;8.35;;;;;;;5.03;97.90;97856.75;5031977;28;20072;-56
2022/11/13 10:43:57;;;;;;;10.57;6.93;;;;;;;5.09;98.48;97857.81;5044452;28;20060;-56
2022/11/13 10:46:42;;;;;;;8.70;5.70;;;;;;;5.11;97.96;97849.53;5033548;28;20056;-53
2022/11/13 10:49:30;;;;;;;9.63;5.80;;;;;;;5.13;98.52;97848.31;5041182;28;20142;-57
2022/11/13 10:52:27;;;;;;;9.27;6.40;;;;;;;5.24;98.56;97835.31;5050912;28;20486;-55
2022/11/13 10:55:36;;;;;;;9.05;5.75;;;;;;;5.33;98.05;97834.06;5031900;28;20059;-57
2022/11/13 10:58:22;;;;;;;9.38;6.38;;;;;;;5.49;98.89;97832.00;5040294;28;20060;-56
2022/11/13 11:01:20;;;;;;;9.02;5.70;;;;;;;5.49;98.33;97822.06;5040107;28;20051;-57
2022/11/13 11:04:12;;;;;;;8.90;6.22;;;;;;;5.64;98.09;97821.03;5039522;28;21621;-57
2022/11/13 11:07:11;;;;;;;9.10;6.18;;;;;;;5.77;97.94;97822.84;5043299;28;20063;-51
2022/11/13 11:10:21;;;;;;;10.35;6.28;;;;;;;5.83;97.73;97808.59;5024526;28;20139;-52
2022/11/13 11:13:11;;;;;;;10.15;6.78;;;;;;;5.89;96.36;97796.19;5027104;28;20056;-57
2022/11/13 11:16:01;;;;;;;9.57;6.05;;;;;;;5.95;95.63;97792.63;5024697;28;20123;-53
2022/11/13 11:18:59;;;;;;;9.43;6.30;;;;;;;6.09;95.25;97783.50;5029526;28;20663;-55
2022/11/13 11:21:45;;;;;;;10.88;6.15;;;;;;;6.16;94.03;97780.00;5040182;28;20183;-56
2022/11/13 11:24:37;;;;;;;8.18;5.10;;;;;;;6.24;93.07;97769.00;5035250;28;20060;-56
2022/11/13 11:27:35;;;;;;;8.43;5.50;;;;;;;6.28;92.91;97767.53;5048626;28;20048;-56
2022/11/13 11:30:22;;;;;;;10.02;5.75;;;;;;;6.31;92.60;97760.88;5033689;28;20411;-54
2022/11/13 11:33:10;;;;;;;8.43;5.20;;;;;;;6.41;92.16;97750.47;5043978;28;20123;-53
2022/11/13 11:36:14;;;;;;;8.90;5.75;;;;;;;6.49;90.45;97735.97;5032461;28;20071;-54
2022/11/13 11:39:14;;;;;;;8.60;5.75;;;;;;;6.57;90.45;97741.09;5044794;28;20107;-55
2022/11/13 11:42:05;;;;;;;7.40;5.13;;;;;;;6.62;89.54;97735.88;5036196;28;20199;-52
2022/11/13 11:44:56;;;;;;;9.20;5.53;;;;;;;6.68;89.87;97731.50;5042148;28;20114;-55
2022/11/13 11:47:42;;;;;;;8.73;5.75;;;;;;;6.75;91.08;97720.69;5041982;28;20041;-57
2022/11/13 11:50:52;;;;;;;9.02;6.07;;;;;;;6.82;90.91;97720.63;5033633;28;20425;-54
2022/11/13 11:53:47;;;;;;;10.70;6.50;;;;;;;6.90;90.07;97710.41;5032058;28;20117;-56
2022/11/13 11:56:42;;;;;;;11.48;7.00;;;;;;;6.96;91.34;97708.69;5032877;28;20048;-55
2022/11/13 11:59:55;;;;;;;8.98;5.88;;;;;;;7.10;91.49;97695.13;5031851;28;20072;-56
2022/11/13 12:02:47;;;;;;;10.05;6.15;;;;;;;7.22;91.23;97687.97;5042623;28;20052;-57
2022/11/13 12:06:00;;;;;;;8.93;6.38;;;;;;;7.25;90.47;97686.69;5043361;28;20110;-57
2022/11/13 12:09:01;;;;;;;9.73;6.38;;;;;;;7.34;90.54;97682.66;5038269;28;20150;-54
2022/11/13 12:12:13;;;;;;;10.18;6.15;;;;;;;7.40;90.80;97684.47;5045021;28;20056;-54
2022/11/13 12:15:09;;;;;;;;;;;;;;;7.43;89.60;97675.09;5024684;28;20107;-56
2022/11/13 12:18:09;;;;;;;9.27;5.72;;;;;;;7.53;89.67;97679.97;5036119;28;19935;-56
2022/11/13 12:21:20;;;;;;;12.27;8.15;;;;;;;7.46;89.37;97677.38;5035354;28;20101;-54
2022/11/13 12:24:35;;;;;;;10.20;6.43;;;;;;;7.47;88.87;97670.09;5045646;28;20056;-54
2022/11/13 12:27:30;;;;;;;10.60;6.30;;;;;;;7.49;88.07;97668.81;5037341;28;20056;-53
2022/11/13 12:30:36;;;;;;;9.60;6.13;;;;;;;7.53;88.69;97661.13;5042424;28;20059;-55
2022/11/13 12:33:30;;;;;;;11.93;6.97;;;;;;;7.60;87.97;97655.66;5045036;28;20539;-51
2022/11/13 12:36:16;;;;;;;9.25;6.45;;;;;;;7.62;88.11;97651.69;5042215;28;20518;-52
2022/11/13 12:39:06;;;;;;;8.88;6.13;;;;;;;7.58;86.92;97646.94;5046360;28;20060;-53
2022/11/13 12:42:26;;;;;;;8.75;5.90;;;;;;;7.63;86.29;97644.44;5046069;28;20102;-55
2022/11/13 12:45:25;;;;;;;8.90;6.00;;;;;;;7.63;85.38;97636.34;5047549;28;20047;-54
2022/11/13 12:48:13;;;;;;;9.45;5.75;;;;;;;7.64;84.90;97636.13;5033365;28;20248;-55
2022/11/13 12:51:03;;;;;;;10.45;6.50;;;;;;;7.62;84.87;97630.13;5042225;28;20183;-56
2022/11/13 12:53:51;;;;;;;10.45;6.10;;;;;;;7.71;83.94;97627.13;5041427;28;20401;-56
2022/11/13 12:56:36;;;;;;;7.80;5.57;;;;;;;7.78;83.82;97625.97;5049725;28;20764;-56
2022/11/13 12:59:21;;;;;;;8.30;5.45;;;;;;;7.82;83.75;97618.28;5045227;28;20063;-53
2022/11/13 13:02:24;;;;;;;8.60;5.70;;;;;;;7.87;82.14;97612.19;5045861;28;20813;-56